La Suprema — IBIL — position and weather

sailwx.info

Track history (hours):
 
Tides and Currents Weather Stations Pressure Air Temp Water Temp Dewpoint Dewpoint Depression Visibility Wind Speed Wind Dir Waves Ship Positions

La Suprema

Last reported at 2016-Sep-28 08:33 UTC. Time now 2016-Sep-28 11:59 UTC.
Position N 44°24' E 008°55'.

Length 211 m; draft 7.5 m.

Type: Passenger vessel. MMSI: 247083700.

Date/timePositionNaut miles runAvg speedWind from/ knotsBaromVisibWave heightAir tempDewpointWater temp
2016-Sep-28 08:33N 44°24' E 008°55'0 0.0
2016-Sep-28 03:28N 44°24' E 008°55'0 0.0
2016-Sep-28 02:28N 44°24' E 008°55'0 0.0
2016-Sep-28 01:27N 44°24' E 008°55'0 0.0
2016-Sep-27 23:33N 44°24' E 008°55'0 0.0
2016-Sep-27 19:31N 44°24' E 008°55'0 0.0
2016-Sep-27 14:32N 44°24' E 008°55'0 0.0
2016-Sep-27 13:28N 44°24' E 008°55'0 0.0
2016-Sep-27 10:33N 44°24' E 008°55'0 0.0
2016-Sep-27 00:32N 44°24' E 008°55'0 0.0
2016-Sep-26 20:33N 44°24' E 008°55'0 0.0
2016-Sep-26 19:32N 44°24' E 008°55'0 0.0
2016-Sep-26 15:31N 44°24' E 008°55'3115.9
2016-Sep-26 13:34N 43°56' E 009°12'4622.7
2016-Sep-26 11:33N 43°13' E 009°34'15 0.4
2016-Sep-24 17:20N 42°59' E 009°40'1722.2
2016-Sep-24 16:33N 43°15' E 009°32'4622.8
2016-Sep-24 14:33N 43°57' E 009°09'2914.3
2016-Sep-24 12:32N 44°24' E 008°55'0 0.0
2016-Sep-24 10:31N 44°24' E 008°55'0 0.0
2016-Sep-24 09:31N 44°24' E 008°55'0 0.0
2016-Sep-24 03:31N 44°24' E 008°55'0 0.0
2016-Sep-24 02:31N 44°24' E 008°55'0 0.0
2016-Sep-24 01:33N 44°24' E 008°55'0 0.0
2016-Sep-24 00:30N 44°24' E 008°55'0 0.0
2016-Sep-23 19:30N 44°24' E 008°55'18 9.4
2016-Sep-23 17:33N 44°08' E 009°05'2322.6
2016-Sep-23 16:33N 43°47' E 009°16'2322.6
2016-Sep-23 15:34N 43°25' E 009°26'37 0.9
2016-Sep-21 23:15N 42°55' E 009°57'1521.5
2016-Sep-21 22:33N 43°02' E 009°39'7926.2
2016-Sep-21 19:33N 44°16' E 008°59'9 3.0
2016-Sep-21 16:27N 44°24' E 008°55'42718.6
2016-Sep-20 17:33N 38°08' E 013°22'35523.7
2016-Sep-20 02:34N 43°16' E 009°30'7324.2
2016-Sep-19 23:34N 44°24' E 008°55'0 0.1
2016-Sep-19 19:31N 44°24' E 008°55'0 0.0
2016-Sep-19 18:33N 44°24' E 008°55'3417.3
2016-Sep-19 16:34N 43°53' E 009°13'  
Track history (hours):
 
Tides and Currents Weather Stations Pressure Air Temp Water Temp Dewpoint Dewpoint Depression Visibility Wind Speed Wind Dir Waves Ship Positions

La Suprema

Last reported at 2016-Sep-28 08:33 UTC. Time now 2016-Sep-28 11:59 UTC.
Position N 44°24' E 008°55'.

Length 211 m; draft 7.5 m.

Type: Passenger vessel. MMSI: 247083700.

Date/timePositionNaut miles runAvg speedWind from/ knotsBaromVisibWave heightAir tempDewpointWater temp
2016-Sep-28 08:33N 44°24' E 008°55'0 0.0
2016-Sep-28 03:28N 44°24' E 008°55'0 0.0
2016-Sep-28 02:28N 44°24' E 008°55'0 0.0
2016-Sep-28 01:27N 44°24' E 008°55'0 0.0
2016-Sep-27 23:33N 44°24' E 008°55'0 0.0
2016-Sep-27 19:31N 44°24' E 008°55'0 0.0
2016-Sep-27 14:32N 44°24' E 008°55'0 0.0
2016-Sep-27 13:28N 44°24' E 008°55'0 0.0
2016-Sep-27 10:33N 44°24' E 008°55'0 0.0
2016-Sep-27 00:32N 44°24' E 008°55'0 0.0
2016-Sep-26 20:33N 44°24' E 008°55'0 0.0
2016-Sep-26 19:32N 44°24' E 008°55'0 0.0
2016-Sep-26 15:31N 44°24' E 008°55'3115.9
2016-Sep-26 13:34N 43°56' E 009°12'4622.7
2016-Sep-26 11:33N 43°13' E 009°34'15 0.4
2016-Sep-24 17:20N 42°59' E 009°40'1722.2
2016-Sep-24 16:33N 43°15' E 009°32'4622.8
2016-Sep-24 14:33N 43°57' E 009°09'2914.3
2016-Sep-24 12:32N 44°24' E 008°55'0 0.0
2016-Sep-24 10:31N 44°24' E 008°55'0 0.0
2016-Sep-24 09:31N 44°24' E 008°55'0 0.0
2016-Sep-24 03:31N 44°24' E 008°55'0 0.0
2016-Sep-24 02:31N 44°24' E 008°55'0 0.0
2016-Sep-24 01:33N 44°24' E 008°55'0 0.0
2016-Sep-24 00:30N 44°24' E 008°55'0 0.0
2016-Sep-23 19:30N 44°24' E 008°55'18 9.4
2016-Sep-23 17:33N 44°08' E 009°05'2322.6
2016-Sep-23 16:33N 43°47' E 009°16'2322.6
2016-Sep-23 15:34N 43°25' E 009°26'37 0.9
2016-Sep-21 23:15N 42°55' E 009°57'1521.5
2016-Sep-21 22:33N 43°02' E 009°39'7926.2
2016-Sep-21 19:33N 44°16' E 008°59'9 3.0
2016-Sep-21 16:27N 44°24' E 008°55'42718.6
2016-Sep-20 17:33N 38°08' E 013°22'35523.7
2016-Sep-20 02:34N 43°16' E 009°30'7324.2
2016-Sep-19 23:34N 44°24' E 008°55'0 0.1
2016-Sep-19 19:31N 44°24' E 008°55'0 0.0
2016-Sep-19 18:33N 44°24' E 008°55'3417.3
2016-Sep-19 16:34N 43°53' E 009°13'  

Dump ship's entire track history